Kolin, Czech Republic
Current Conditions -  °F | °C
As of 8:00 AM on Friday 31 Oct 2014 (Local Time) from LKCV Reporting Station
Haze Haze  
Wind Chill: 43°   Ceiling: 2500
Heat Index: 43°   Visibility: 3mi
Dew Point: 41°   Wind: 3mph
Humidity: 93%   Direction: 80°E
Pressure: 30.33"   Gusts: NA
Location:  50.03°N, 15.19°E
Report Text: LKCV 310600Z 08003KT 5000 BR BKN025 06/05 Q1027 NOSIG
Loading
Personal Weather Stations






























Interactive Weather Map
Tropical Storm Tracking
New forecast layout! Learn more

10-Day Weather Forecast

Advertisements
Track Severe Weather on mobile